Time;durP1;ratioP1;P1;durP2;ratioP2;P2;SDS_P1;SDS_P2;PMS_P1;PMS_P2;Temp;Humidity;BMP_temperature;BMP_pressure;BME280_temperature;BME280_humidity;BME280_pressure;Samples;Min_cycle;Max_cycle;Signal;HPM_P1;HPM_P2
2021/12/17 00:00:44;;;;;;;52.78;19.67;;;;;;;;;;5015179;28;20042;-68
2021/12/17 00:04:03;;;;;;;47.88;18.52;;;;;;;;;;5015823;28;20041;-68
2021/12/17 00:06:13;;;;;;;41.28;16.77;;;;;;;;;;5002958;28;20042;-68
2021/12/17 00:08:41;;;;;;;35.17;13.55;;;;;;;;;;5014821;28;20076;-68
2021/12/17 00:11:08;;;;;;;33.10;13.70;;;;;;;;;;5014743;28;20121;-68
2021/12/17 00:13:34;;;;;;;40.38;15.68;;;;;;;;;;5015262;28;20046;-68
2021/12/17 00:16:01;;;;;;;34.72;13.80;;;;;;;;;;5015009;28;20101;-68
2021/12/17 00:18:37;;;;;;;32.00;13.32;;;;;;;;;;4996634;28;20050;-68
2021/12/17 00:40:21;;;;;;;35.78;14.02;;;;;;;;;;5018244;28;20045;-68
2021/12/17 00:48:37;;;;;;;52.55;17.40;;;;;;;;;;5017664;28;20046;-68
2021/12/17 00:53:34;;;;;;;50.78;17.50;;;;;;;;;;5017623;28;20064;-68
2021/12/17 00:56:00;;;;;;;43.30;16.25;;;;;;;;;;5017087;28;20045;-68
2021/12/17 00:58:26;;;;;;;39.28;15.90;;;;;;;;;;5017939;28;20100;-68
2021/12/17 01:00:52;;;;;;;46.28;16.63;;;;;;;;;;5018434;28;20042;-68
2021/12/17 01:03:18;;;;;;;49.53;16.67;;;;;;;;;;5017762;28;20042;-68
2021/12/17 01:05:44;;;;;;;49.47;16.65;;;;;;;;;;5017694;28;20853;-68
2021/12/17 01:08:10;;;;;;;55.63;17.58;;;;;;;;;;5017849;28;20034;-68
2021/12/17 01:10:49;;;;;;;47.60;16.63;;;;;;;;;;5018276;28;20746;-68
2021/12/17 01:13:15;;;;;;;46.92;16.42;;;;;;;;;;5018103;28;20046;-68
2021/12/17 01:15:42;;;;;;;50.50;17.30;;;;;;;;;;5017768;28;20034;-68
2021/12/17 01:18:13;;;;;;;49.05;16.55;;;;;;;;;;5016651;28;20473;-68
2021/12/17 01:36:45;;;;;;;51.25;16.23;;;;;;;;;;5018478;28;20056;-68
2021/12/17 01:40:19;;;;;;;47.92;16.02;;;;;;;;;;5000990;28;20050;-68
2021/12/17 01:42:06;;;;;;;45.15;14.80;;;;;;;;;;5017217;28;20042;-68
2021/12/17 01:44:34;;;;;;;41.83;15.18;;;;;;;;;;5017970;28;20042;-68
2021/12/17 01:47:00;;;;;;;47.45;15.57;;;;;;;;;;5017684;28;20046;-68
2021/12/17 02:00:20;;;;;;;42.73;13.20;;;;;;;;;;5018731;28;20076;-68
2021/12/17 02:02:49;;;;;;;36.80;13.07;;;;;;;;;;5018012;28;20076;-68
2021/12/17 02:05:15;;;;;;;38.72;13.90;;;;;;;;;;5019288;28;20404;-68
2021/12/17 02:07:43;;;;;;;40.00;12.98;;;;;;;;;;5019886;28;20065;-68
2021/12/17 02:10:43;;;;;;;36.25;12.35;;;;;;;;;;5018988;28;20057;-68
2021/12/17 02:29:25;;;;;;;31.13;11.55;;;;;;;;;;4989383;28;20058;-68
2021/12/17 02:31:56;;;;;;;31.85;11.77;;;;;;;;;;5017811;28;20049;-68
2021/12/17 02:35:01;;;;;;;33.35;12.43;;;;;;;;;;5018486;28;20093;-68
2021/12/17 02:37:29;;;;;;;33.38;11.25;;;;;;;;;;5019530;28;20046;-68
2021/12/17 02:45:32;;;;;;;32.83;11.00;;;;;;;;;;5017101;28;20064;-68
2021/12/17 02:45:32;;;;;;;31.52;11.32;;;;;;;;;;5016923;28;20073;-68
2021/12/17 02:48:09;;;;;;;32.95;11.30;;;;;;;;;;5017219;28;20049;-68
2021/12/17 02:50:37;;;;;;;39.15;12.43;;;;;;;;;;5017665;28;20041;-68
2021/12/17 02:53:07;;;;;;;32.60;11.43;;;;;;;;;;5017546;28;20088;-68
2021/12/17 02:55:34;;;;;;;27.35;10.63;;;;;;;;;;5017502;28;20103;-68
2021/12/17 02:58:00;;;;;;;28.63;11.02;;;;;;;;;;5018106;28;20052;-68
2021/12/17 03:00:26;;;;;;;29.30;10.10;;;;;;;;;;5017695;28;20030;-68
2021/12/17 03:02:54;;;;;;;28.95;11.00;;;;;;;;;;5017746;28;20165;-68
2021/12/17 03:05:21;;;;;;;25.73;10.27;;;;;;;;;;5018280;28;20038;-68
2021/12/17 03:07:48;;;;;;;30.23;10.65;;;;;;;;;;5000156;28;20068;-68
2021/12/17 03:10:17;;;;;;;23.77;9.75;;;;;;;;;;5017478;28;20042;-68
2021/12/17 03:12:58;;;;;;;26.58;10.25;;;;;;;;;;5017807;28;20544;-68
2021/12/17 03:15:37;;;;;;;23.92;9.93;;;;;;;;;;5017957;28;20092;-68
2021/12/17 03:25:51;;;;;;;27.23;11.70;;;;;;;;;;5017017;28;20034;-68
2021/12/17 03:28:18;;;;;;;28.15;11.25;;;;;;;;;;5017478;28;20061;-68
2021/12/17 03:30:45;;;;;;;25.58;9.77;;;;;;;;;;5017107;28;20057;-68
2021/12/17 03:33:11;;;;;;;25.67;11.50;;;;;;;;;;5016509;28;20355;-68
2021/12/17 03:35:37;;;;;;;33.53;11.30;;;;;;;;;;5017684;28;20042;-68
2021/12/17 03:38:04;;;;;;;35.08;11.38;;;;;;;;;;5017784;28;20100;-68
2021/12/17 03:40:32;;;;;;;25.23;11.00;;;;;;;;;;4999187;28;20099;-68
2021/12/17 03:43:03;;;;;;;24.20;10.18;;;;;;;;;;5017377;28;20046;-68
2021/12/17 03:45:29;;;;;;;25.65;10.10;;;;;;;;;;4999914;28;20539;-68
2021/12/17 03:47:55;;;;;;;27.73;10.52;;;;;;;;;;5017079;28;20046;-68
2021/12/17 03:50:22;;;;;;;30.30;11.00;;;;;;;;;;5017569;28;20061;-68
2021/12/17 03:52:48;;;;;;;33.42;12.18;;;;;;;;;;5016651;28;20424;-68
2021/12/17 03:55:14;;;;;;;29.67;12.40;;;;;;;;;;5015803;28;20034;-68
2021/12/17 03:57:42;;;;;;;26.35;11.95;;;;;;;;;;5017885;28;20488;-68
2021/12/17 04:00:10;;;;;;;32.85;12.10;;;;;;;;;;5018402;28;20464;-68
2021/12/17 04:02:36;;;;;;;36.35;12.00;;;;;;;;;;5017749;28;20050;-68
2021/12/17 04:05:03;;;;;;;31.63;10.50;;;;;;;;;;5017682;28;20045;-68
2021/12/17 04:07:29;;;;;;;32.72;11.63;;;;;;;;;;5017856;28;20034;-68
2021/12/17 04:09:57;;;;;;;28.58;10.57;;;;;;;;;;5018047;28;20038;-68
2021/12/17 04:12:37;;;;;;;30.83;11.25;;;;;;;;;;5018407;28;20052;-68
2021/12/17 04:15:04;;;;;;;28.73;11.20;;;;;;;;;;5018363;28;20113;-68
2021/12/17 04:17:38;;;;;;;28.17;10.88;;;;;;;;;;5018227;28;20504;-68
2021/12/17 04:20:05;;;;;;;34.13;12.27;;;;;;;;;;5017988;28;20128;-68
2021/12/17 04:22:31;;;;;;;35.88;12.65;;;;;;;;;;5018256;28;20488;-68
2021/12/17 04:24:57;;;;;;;31.88;12.50;;;;;;;;;;5017940;28;20084;-68
2021/12/17 04:27:23;;;;;;;32.45;11.70;;;;;;;;;;5018514;28;20038;-68
2021/12/17 04:29:49;;;;;;;32.65;11.35;;;;;;;;;;5017544;28;20073;-68
2021/12/17 04:32:16;;;;;;;27.15;11.07;;;;;;;;;;5018118;28;20470;-68
2021/12/17 04:34:43;;;;;;;31.65;12.23;;;;;;;;;;5018606;28;20590;-68
2021/12/17 04:37:09;;;;;;;33.25;12.75;;;;;;;;;;5019317;28;20608;-68
2021/12/17 04:39:36;;;;;;;29.73;10.80;;;;;;;;;;5018049;28;20053;-68
2021/12/17 04:42:08;;;;;;;26.90;11.23;;;;;;;;;;5018008;28;20073;-68
2021/12/17 04:44:37;;;;;;;28.25;10.38;;;;;;;;;;5018258;28;20153;-68
2021/12/17 04:57:56;;;;;;;29.77;11.82;;;;;;;;;;5017984;28;20046;-68
2021/12/17 05:00:24;;;;;;;25.63;10.95;;;;;;;;;;4999937;28;20554;-68
2021/12/17 05:02:53;;;;;;;30.42;11.52;;;;;;;;;;5000674;28;20046;-68
2021/12/17 05:05:22;;;;;;;29.27;12.30;;;;;;;;;;5018758;28;20054;-68
2021/12/17 05:07:58;;;;;;;29.73;11.77;;;;;;;;;;5021752;28;20042;-68
2021/12/17 05:18:31;;;;;;;30.17;11.15;;;;;;;;;;5021378;28;20146;-68
2021/12/17 05:21:01;;;;;;;28.02;11.50;;;;;;;;;;5021191;28;20372;-68
2021/12/17 05:23:34;;;;;;;23.85;10.50;;;;;;;;;;5020932;28;20045;-68
2021/12/17 05:26:05;;;;;;;28.38;11.02;;;;;;;;;;5022477;28;20046;-68
2021/12/17 05:28:31;;;;;;;27.65;10.45;;;;;;;;;;5021495;28;20133;-68
2021/12/17 05:30:58;;;;;;;26.55;10.07;;;;;;;;;;5020802;28;20053;-68
2021/12/17 05:33:24;;;;;;;24.20;10.25;;;;;;;;;;5020960;28;20451;-68
2021/12/17 05:35:51;;;;;;;26.55;11.45;;;;;;;;;;5022124;28;20488;-68
2021/12/17 05:38:18;;;;;;;26.05;10.00;;;;;;;;;;5021566;28;20096;-68
2021/12/17 05:40:46;;;;;;;27.13;10.85;;;;;;;;;;5021089;28;20046;-68
2021/12/17 05:43:12;;;;;;;29.15;11.00;;;;;;;;;;5021417;28;20038;-68
2021/12/17 05:48:10;;;;;;;31.48;11.35;;;;;;;;;;5020890;28;20045;-68
2021/12/17 05:50:37;;;;;;;34.00;12.10;;;;;;;;;;5020799;28;20030;-68
2021/12/17 05:53:04;;;;;;;29.00;11.27;;;;;;;;;;5020369;28;20069;-68
2021/12/17 05:55:30;;;;;;;34.42;12.32;;;;;;;;;;5020676;28;20084;-68
2021/12/17 05:57:56;;;;;;;26.63;11.00;;;;;;;;;;5021128;28;20405;-68
2021/12/17 06:00:23;;;;;;;32.33;11.32;;;;;;;;;;5020719;28;20045;-68
2021/12/17 06:02:50;;;;;;;23.30;11.00;;;;;;;;;;5020437;28;20137;-68
2021/12/17 06:05:16;;;;;;;26.63;11.65;;;;;;;;;;5017021;28;20064;-68
2021/12/17 06:07:43;;;;;;;31.77;12.30;;;;;;;;;;5016446;28;20034;-68
2021/12/17 06:10:09;;;;;;;27.33;11.48;;;;;;;;;;5016772;28;20038;-68
2021/12/17 06:12:36;;;;;;;29.75;11.20;;;;;;;;;;5016066;28;20038;-68
2021/12/17 06:15:06;;;;;;;36.40;14.75;;;;;;;;;;5015908;28;20086;-68
2021/12/17 06:17:32;;;;;;;28.15;12.65;;;;;;;;;;5015717;28;20045;-68
2021/12/17 06:19:59;;;;;;;28.63;11.27;;;;;;;;;;5016953;28;20045;-68
2021/12/17 06:22:25;;;;;;;26.17;11.55;;;;;;;;;;5016010;28;20050;-68
2021/12/17 06:24:52;;;;;;;25.27;11.10;;;;;;;;;;5016766;28;20544;-68
2021/12/17 06:27:19;;;;;;;29.45;11.50;;;;;;;;;;5016529;28;20033;-68
2021/12/17 06:29:46;;;;;;;29.35;11.43;;;;;;;;;;4997899;28;20054;-68
2021/12/17 06:32:12;;;;;;;27.42;10.40;;;;;;;;;;5016378;28;20365;-68
2021/12/17 06:34:38;;;;;;;25.80;11.20;;;;;;;;;;5016477;28;20034;-68
2021/12/17 06:37:05;;;;;;;30.67;10.68;;;;;;;;;;5015940;28;20041;-68
2021/12/17 06:39:31;;;;;;;27.98;10.13;;;;;;;;;;5016236;28;20128;-68
2021/12/17 06:41:58;;;;;;;25.65;9.68;;;;;;;;;;5015220;28;20034;-68
2021/12/17 06:44:26;;;;;;;29.98;11.65;;;;;;;;;;5016165;28;20046;-68
2021/12/17 06:47:02;;;;;;;27.17;11.35;;;;;;;;;;5016004;28;20042;-68
2021/12/17 07:00:17;;;;;;;24.40;9.35;;;;;;;;;;5015257;28;20372;-68
2021/12/17 07:09:12;;;;;;;27.17;11.23;;;;;;;;;;5015876;28;20431;-68
2021/12/17 07:11:19;;;;;;;25.85;11.35;;;;;;;;;;5015162;28;20077;-68
2021/12/17 07:24:49;;;;;;;25.73;10.25;;;;;;;;;;5016355;28;20056;-68
2021/12/17 07:32:49;;;;;;;20.95;9.25;;;;;;;;;;5002288;28;20069;-69
2021/12/17 07:40:33;;;;;;;26.85;10.20;;;;;;;;;;4993858;28;20358;-71
2021/12/17 07:43:02;;;;;;;23.02;10.18;;;;;;;;;;5011188;28;20095;-71
2021/12/17 07:45:28;;;;;;;22.98;9.65;;;;;;;;;;5011372;28;20177;-70
2021/12/17 07:47:55;;;;;;;23.45;9.73;;;;;;;;;;5011514;28;20435;-71
2021/12/17 07:50:21;;;;;;;22.85;9.90;;;;;;;;;;5010810;28;20449;-68
2021/12/17 07:52:47;;;;;;;21.35;8.90;;;;;;;;;;5004583;28;20049;-71
2021/12/17 07:55:13;;;;;;;21.75;9.05;;;;;;;;;;5010720;28;20046;-70
2021/12/17 07:57:39;;;;;;;21.50;10.32;;;;;;;;;;5010816;28;20176;-68
2021/12/17 08:00:06;;;;;;;24.73;9.30;;;;;;;;;;5008778;28;20038;-70
2021/12/17 08:02:32;;;;;;;21.70;9.23;;;;;;;;;;5010194;28;20050;-72
2021/12/17 08:04:58;;;;;;;20.92;9.27;;;;;;;;;;5009575;28;20113;-69
2021/12/17 08:07:25;;;;;;;20.75;9.30;;;;;;;;;;5009970;28;20042;-66
2021/12/17 08:09:51;;;;;;;17.23;8.85;;;;;;;;;;5009309;28;20644;-69
2021/12/17 08:12:17;;;;;;;24.58;9.55;;;;;;;;;;5008226;28;20180;-69
2021/12/17 08:14:43;;;;;;;22.95;9.70;;;;;;;;;;5010167;28;20046;-70
2021/12/17 08:25:45;;;;;;;23.65;9.57;;;;;;;;;;5010621;28;20038;-67
2021/12/17 08:28:13;;;;;;;19.05;8.82;;;;;;;;;;5018808;28;20064;-67
2021/12/17 08:30:40;;;;;;;21.30;9.43;;;;;;;;;;5014192;28;20121;-68
2021/12/17 08:33:06;;;;;;;20.70;9.75;;;;;;;;;;5008569;28;20054;-68
2021/12/17 08:35:33;;;;;;;21.05;8.80;;;;;;;;;;5009018;28;20450;-67
2021/12/17 08:38:02;;;;;;;23.52;9.27;;;;;;;;;;5009823;28;20046;-68
2021/12/17 08:40:30;;;;;;;19.80;8.90;;;;;;;;;;4994410;28;20053;-68
2021/12/17 08:42:56;;;;;;;17.10;8.38;;;;;;;;;;5011718;28;20439;-70
2021/12/17 08:45:22;;;;;;;17.55;8.10;;;;;;;;;;5013854;28;20487;-67
2021/12/17 08:47:49;;;;;;;23.08;9.20;;;;;;;;;;5013975;28;20045;-68
2021/12/17 08:50:15;;;;;;;18.35;8.65;;;;;;;;;;5012425;28;20560;-68
2021/12/17 08:52:42;;;;;;;20.15;9.45;;;;;;;;;;5013940;28;20040;-69
2021/12/17 08:55:10;;;;;;;20.70;9.23;;;;;;;;;;5013239;28;20054;-69
2021/12/17 08:57:36;;;;;;;21.23;9.07;;;;;;;;;;4995560;28;20084;-67
2021/12/17 09:00:06;;;;;;;23.90;9.07;;;;;;;;;;5014088;28;20488;-69
2021/12/17 09:02:35;;;;;;;23.33;9.45;;;;;;;;;;4995959;28;20104;-69
2021/12/17 09:05:01;;;;;;;21.25;9.13;;;;;;;;;;5013158;28;20388;-69
2021/12/17 09:07:27;;;;;;;21.65;9.55;;;;;;;;;;5006148;28;20583;-69
2021/12/17 09:09:53;;;;;;;20.83;8.82;;;;;;;;;;5013550;28;20061;-68
2021/12/17 09:12:19;;;;;;;20.23;10.38;;;;;;;;;;5009723;28;20768;-67
2021/12/17 09:14:45;;;;;;;22.70;9.45;;;;;;;;;;5013246;28;20053;-68
2021/12/17 09:17:11;;;;;;;20.52;9.30;;;;;;;;;;5012608;28;20080;-68
2021/12/17 09:19:37;;;;;;;22.58;9.68;;;;;;;;;;5012729;28;20077;-68
2021/12/17 09:22:03;;;;;;;20.27;9.88;;;;;;;;;;5012120;28;20045;-68
2021/12/17 09:24:30;;;;;;;21.90;9.48;;;;;;;;;;5013764;28;20057;-68
2021/12/17 09:26:56;;;;;;;19.55;8.25;;;;;;;;;;5016138;28;20033;-67
2021/12/17 09:29:22;;;;;;;20.15;8.15;;;;;;;;;;5009747;28;20081;-66
2021/12/17 09:31:48;;;;;;;19.70;8.95;;;;;;;;;;4994308;28;20054;-66
2021/12/17 09:34:14;;;;;;;19.38;9.00;;;;;;;;;;5011320;28;20404;-67
2021/12/17 09:36:40;;;;;;;21.35;9.65;;;;;;;;;;5011304;28;20037;-69
2021/12/17 09:39:06;;;;;;;18.65;9.32;;;;;;;;;;5012955;28;20045;-68
2021/12/17 09:41:33;;;;;;;21.77;9.18;;;;;;;;;;5012186;28;20047;-68
2021/12/17 09:43:59;;;;;;;19.30;9.30;;;;;;;;;;5012311;28;20660;-68
2021/12/17 09:46:25;;;;;;;21.15;9.65;;;;;;;;;;4994817;28;20042;-67
2021/12/17 09:48:51;;;;;;;17.85;9.40;;;;;;;;;;5012454;28;20056;-67
2021/12/17 09:51:19;;;;;;;21.38;9.88;;;;;;;;;;5011859;28;20081;-69
2021/12/17 09:53:46;;;;;;;19.95;9.25;;;;;;;;;;5009791;28;20144;-70
2021/12/17 09:56:12;;;;;;;19.23;9.80;;;;;;;;;;5011450;28;20057;-69
2021/12/17 09:58:38;;;;;;;19.10;9.85;;;;;;;;;;5016437;28;20117;-67
2021/12/17 10:01:04;;;;;;;18.80;9.57;;;;;;;;;;5011997;28;20042;-68
2021/12/17 10:03:30;;;;;;;19.38;10.23;;;;;;;;;;5012827;28;20057;-68
2021/12/17 10:05:57;;;;;;;17.92;9.48;;;;;;;;;;5010325;28;20042;-68
2021/12/17 10:08:24;;;;;;;20.17;9.98;;;;;;;;;;4995407;28;20132;-69
2021/12/17 10:11:06;;;;;;;21.85;10.70;;;;;;;;;;5011559;28;20491;-67
2021/12/17 10:13:32;;;;;;;19.42;9.82;;;;;;;;;;5009591;28;20120;-70
2021/12/17 10:16:01;;;;;;;19.98;9.80;;;;;;;;;;5009678;28;20073;-70
2021/12/17 10:18:40;;;;;;;18.30;9.43;;;;;;;;;;5011078;28;20041;-70
2021/12/17 10:21:10;;;;;;;19.80;9.65;;;;;;;;;;5012832;28;20069;-70
2021/12/17 10:23:37;;;;;;;20.90;10.05;;;;;;;;;;4991111;28;20050;-68
2021/12/17 10:26:04;;;;;;;16.75;9.30;;;;;;;;;;5009504;28;20141;-69
2021/12/17 10:28:30;;;;;;;22.55;9.45;;;;;;;;;;5012455;28;20480;-68
2021/12/17 10:30:57;;;;;;;19.08;9.50;;;;;;;;;;5005224;28;20050;-69
2021/12/17 10:33:25;;;;;;;22.88;9.48;;;;;;;;;;4993686;28;20041;-69
2021/12/17 10:35:53;;;;;;;21.50;10.30;;;;;;;;;;5010526;28;20057;-70
2021/12/17 10:38:23;;;;;;;19.45;9.70;;;;;;;;;;4994898;28;20045;-69
2021/12/17 10:41:05;;;;;;;19.77;9.88;;;;;;;;;;4993486;28;20233;-69
2021/12/17 10:46:08;;;;;;;17.98;9.10;;;;;;;;;;5010571;28;20385;-68
2021/12/17 10:48:48;;;;;;;18.33;10.18;;;;;;;;;;5011231;28;20053;-69
2021/12/17 10:53:59;;;;;;;19.10;8.95;;;;;;;;;;5011290;28;20055;-68
2021/12/17 10:56:30;;;;;;;22.40;12.02;;;;;;;;;;5011027;28;20069;-67
2021/12/17 10:59:01;;;;;;;19.23;9.90;;;;;;;;;;5011630;28;20042;-68
2021/12/17 11:01:32;;;;;;;19.05;9.40;;;;;;;;;;5009267;28;20033;-66
2021/12/17 11:04:10;;;;;;;17.75;9.10;;;;;;;;;;5009013;28;20053;-67
2021/12/17 11:06:45;;;;;;;17.42;9.27;;;;;;;;;;5012811;28;20037;-67
2021/12/17 11:09:11;;;;;;;17.23;8.55;;;;;;;;;;4999288;28;20048;-65
2021/12/17 11:11:42;;;;;;;19.55;8.88;;;;;;;;;;5010233;28;20420;-65
2021/12/17 11:14:08;;;;;;;14.18;8.20;;;;;;;;;;5010771;28;20054;-66
2021/12/17 11:16:39;;;;;;;17.15;8.60;;;;;;;;;;5011096;28;20461;-66
2021/12/17 11:19:06;;;;;;;17.05;8.77;;;;;;;;;;4997718;28;20057;-66
2021/12/17 11:21:32;;;;;;;19.83;9.00;;;;;;;;;;5011149;28;20061;-68
2021/12/17 11:24:00;;;;;;;18.23;8.95;;;;;;;;;;5010782;28;20038;-67
2021/12/17 11:26:27;;;;;;;17.38;8.55;;;;;;;;;;5009924;28;20049;-65
2021/12/17 11:29:00;;;;;;;18.35;9.27;;;;;;;;;;5011024;28;20081;-66
2021/12/17 11:31:26;;;;;;;18.05;8.50;;;;;;;;;;5011033;28;20400;-67
2021/12/17 11:33:52;;;;;;;15.90;8.63;;;;;;;;;;5002783;28;20046;-68
2021/12/17 11:36:18;;;;;;;15.15;8.43;;;;;;;;;;4993255;28;20034;-67
2021/12/17 11:39:03;;;;;;;20.95;9.38;;;;;;;;;;5010301;28;20041;-66
2021/12/17 11:41:35;;;;;;;17.75;9.45;;;;;;;;;;5010721;28;20042;-66
2021/12/17 11:44:02;;;;;;;14.25;8.30;;;;;;;;;;5011483;28;20469;-66
2021/12/17 11:46:30;;;;;;;17.45;8.73;;;;;;;;;;4993020;28;20529;-66
2021/12/17 11:49:00;;;;;;;13.05;7.68;;;;;;;;;;4993357;28;20041;-66
2021/12/17 11:51:28;;;;;;;18.67;9.40;;;;;;;;;;5010625;28;20037;-66
2021/12/17 11:53:56;;;;;;;17.30;8.65;;;;;;;;;;5010816;28;20054;-66
2021/12/17 11:56:31;;;;;;;15.40;8.32;;;;;;;;;;5010183;28;20087;-67
2021/12/17 11:58:57;;;;;;;17.38;8.15;;;;;;;;;;5011407;28;20514;-66
2021/12/17 12:01:42;;;;;;;17.38;8.18;;;;;;;;;;5011300;28;20508;-66
2021/12/17 12:04:21;;;;;;;17.63;8.68;;;;;;;;;;5011283;28;20088;-66
2021/12/17 12:06:59;;;;;;;16.88;8.68;;;;;;;;;;5010436;28;20038;-66
2021/12/17 12:09:44;;;;;;;17.52;9.15;;;;;;;;;;5010742;28;20041;-66
2021/12/17 12:12:11;;;;;;;23.23;9.43;;;;;;;;;;5011147;28;20038;-66
2021/12/17 12:14:37;;;;;;;16.85;8.15;;;;;;;;;;5011301;28;20088;-66
2021/12/17 12:17:03;;;;;;;16.33;9.27;;;;;;;;;;5013268;28;20084;-65
2021/12/17 12:19:47;;;;;;;15.55;8.50;;;;;;;;;;5015251;28;20492;-65
2021/12/17 12:22:13;;;;;;;17.42;9.32;;;;;;;;;;5011163;28;20046;-66
2021/12/17 12:24:39;;;;;;;17.02;9.23;;;;;;;;;;5013067;28;20072;-66
2021/12/17 12:27:05;;;;;;;18.65;8.88;;;;;;;;;;5013738;28;20448;-67
2021/12/17 12:29:31;;;;;;;20.48;9.77;;;;;;;;;;5013488;28;20061;-66
2021/12/17 12:32:02;;;;;;;18.23;9.45;;;;;;;;;;5013796;28;20487;-66
2021/12/17 12:34:31;;;;;;;16.52;9.30;;;;;;;;;;5014416;28;20038;-67
2021/12/17 12:37:06;;;;;;;15.38;8.88;;;;;;;;;;5010923;28;20038;-66
2021/12/17 12:39:34;;;;;;;16.52;8.40;;;;;;;;;;5013502;28;20698;-67
2021/12/17 12:42:02;;;;;;;16.40;8.80;;;;;;;;;;5013880;28;20063;-67
2021/12/17 12:44:49;;;;;;;14.90;8.32;;;;;;;;;;5014043;28;20048;-67
2021/12/17 12:47:15;;;;;;;16.20;8.68;;;;;;;;;;5013486;28;20042;-66
2021/12/17 12:50:02;;;;;;;16.13;8.50;;;;;;;;;;5013764;28;20069;-68
2021/12/17 12:52:28;;;;;;;15.45;7.97;;;;;;;;;;5012983;28;20042;-69
2021/12/17 12:54:55;;;;;;;15.50;8.02;;;;;;;;;;4994928;28;20037;-70
2021/12/17 12:57:25;;;;;;;18.30;9.02;;;;;;;;;;5012410;28;20052;-67
2021/12/17 12:59:55;;;;;;;17.25;8.35;;;;;;;;;;5013775;28;20037;-67
2021/12/17 13:02:25;;;;;;;12.30;7.35;;;;;;;;;;5013093;28;20372;-68
2021/12/17 13:04:52;;;;;;;11.25;7.13;;;;;;;;;;5012279;28;20131;-68
2021/12/17 13:07:30;;;;;;;13.05;7.32;;;;;;;;;;5014103;28;20037;-66
2021/12/17 13:09:56;;;;;;;14.27;7.28;;;;;;;;;;5006807;28;20048;-69
2021/12/17 13:12:24;;;;;;;12.23;6.68;;;;;;;;;;5012599;28;20132;-67
2021/12/17 13:14:51;;;;;;;12.77;7.63;;;;;;;;;;5013705;28;20042;-68
2021/12/17 13:20:14;;;;;;;13.48;7.30;;;;;;;;;;5012177;28;20045;-67
2021/12/17 13:20:42;;;;;;;13.98;7.18;;;;;;;;;;5012959;28;20510;-67
2021/12/17 13:23:08;;;;;;;;;;;;;;;;;;5009231;28;20074;-67
2021/12/17 13:25:35;;;;;;;10.02;5.88;;;;;;;;;;5012432;28;19956;-68
2021/12/17 13:28:03;;;;;;;12.30;6.25;;;;;;;;;;5012706;28;20050;-68
2021/12/17 13:30:29;;;;;;;10.10;5.20;;;;;;;;;;5012026;28;20041;-66
2021/12/17 13:32:55;;;;;;;7.53;4.60;;;;;;;;;;5009010;28;20058;-67
2021/12/17 13:35:26;;;;;;;6.40;4.53;;;;;;;;;;5013418;28;20042;-65
2021/12/17 13:37:59;;;;;;;9.27;4.55;;;;;;;;;;5011299;28;20048;-66
2021/12/17 13:40:27;;;;;;;7.45;4.57;;;;;;;;;;5012814;28;20053;-66
2021/12/17 13:42:55;;;;;;;8.68;4.22;;;;;;;;;;5012894;28;20384;-66
2021/12/17 13:45:21;;;;;;;6.80;4.28;;;;;;;;;;4993759;28;20042;-65
2021/12/17 13:47:50;;;;;;;4.82;2.85;;;;;;;;;;5012278;28;20128;-66
2021/12/17 13:50:28;;;;;;;5.22;3.15;;;;;;;;;;5012613;28;20154;-65
2021/12/17 13:52:59;;;;;;;6.63;2.83;;;;;;;;;;5010340;28;20797;-66
2021/12/17 13:55:33;;;;;;;4.30;2.40;;;;;;;;;;4997787;28;20045;-64
2021/12/17 13:58:00;;;;;;;4.72;2.92;;;;;;;;;;5010277;28;20042;-68
2021/12/17 14:00:36;;;;;;;3.90;2.35;;;;;;;;;;5011559;28;20046;-67
2021/12/17 14:03:02;;;;;;;6.82;2.78;;;;;;;;;;5010840;28;20038;-66
2021/12/17 14:05:49;;;;;;;3.45;2.75;;;;;;;;;;5009498;28;20042;-66
2021/12/17 14:08:16;;;;;;;6.82;3.00;;;;;;;;;;5008895;28;20042;-66
2021/12/17 14:10:43;;;;;;;5.05;2.70;;;;;;;;;;5012319;28;20373;-65
2021/12/17 14:13:17;;;;;;;2.72;2.28;;;;;;;;;;5012144;28;20179;-66
2021/12/17 14:15:43;;;;;;;4.40;2.60;;;;;;;;;;5011762;28;20388;-66
2021/12/17 14:18:10;;;;;;;4.93;2.67;;;;;;;;;;5010173;28;20095;-67
2021/12/17 14:20:46;;;;;;;4.53;3.05;;;;;;;;;;4995033;28;20511;-68
2021/12/17 14:23:17;;;;;;;4.68;3.10;;;;;;;;;;5011299;28;20073;-66
2021/12/17 14:25:50;;;;;;;4.85;2.90;;;;;;;;;;5011990;28;20514;-66
2021/12/17 14:28:26;;;;;;;4.22;2.97;;;;;;;;;;5013323;28;20107;-66
2021/12/17 14:30:57;;;;;;;6.25;3.67;;;;;;;;;;4999861;28;20046;-68
2021/12/17 14:33:24;;;;;;;4.78;3.17;;;;;;;;;;5011190;28;20504;-66
2021/12/17 14:35:53;;;;;;;6.78;4.20;;;;;;;;;;5011174;28;20096;-66
2021/12/17 14:38:20;;;;;;;5.68;4.00;;;;;;;;;;5007802;28;20030;-67
2021/12/17 14:40:54;;;;;;;7.10;4.55;;;;;;;;;;5011851;28;20030;-67
2021/12/17 14:43:23;;;;;;;6.70;4.75;;;;;;;;;;5003520;28;20133;-69
2021/12/17 14:46:09;;;;;;;8.40;5.10;;;;;;;;;;4986671;28;20682;-69
2021/12/17 14:48:47;;;;;;;5.95;4.40;;;;;;;;;;5006314;28;20050;-69
2021/12/17 15:02:37;;;;;;;9.25;4.70;;;;;;;;;;5011693;28;20046;-71
2021/12/17 15:04:58;;;;;;;9.15;5.13;;;;;;;;;;5012183;28;20571;-72
2021/12/17 15:07:25;;;;;;;8.52;5.63;;;;;;;;;;4994374;28;20077;-71
2021/12/17 15:09:52;;;;;;;7.07;4.93;;;;;;;;;;4994715;28;20061;-69
2021/12/17 15:14:59;;;;;;;6.88;4.60;;;;;;;;;;5011409;28;20161;-69
2021/12/17 15:17:25;;;;;;;8.68;5.85;;;;;;;;;;5012583;28;20082;-68
2021/12/17 15:19:51;;;;;;;8.23;5.10;;;;;;;;;;5012181;28;20604;-68
2021/12/17 15:22:17;;;;;;;7.10;5.10;;;;;;;;;;5011664;28;20038;-70
2021/12/17 15:24:44;;;;;;;9.85;5.55;;;;;;;;;;5012501;28;20129;-71
2021/12/17 15:27:12;;;;;;;9.43;5.25;;;;;;;;;;5012168;28;20432;-69
2021/12/17 15:29:40;;;;;;;8.77;5.38;;;;;;;;;;5014136;28;20480;-67
2021/12/17 15:32:08;;;;;;;8.90;5.80;;;;;;;;;;5021193;28;20060;-67
2021/12/17 15:34:35;;;;;;;9.68;5.47;;;;;;;;;;5020379;28;20045;-67
2021/12/17 15:37:02;;;;;;;8.93;4.90;;;;;;;;;;5019720;28;20037;-67
2021/12/17 15:39:30;;;;;;;7.63;5.70;;;;;;;;;;5020830;28;20037;-67
2021/12/17 15:41:56;;;;;;;7.30;5.43;;;;;;;;;;5019452;28;20388;-67
2021/12/17 15:44:24;;;;;;;8.35;5.30;;;;;;;;;;5020132;28;20049;-67
2021/12/17 15:46:51;;;;;;;10.57;5.78;;;;;;;;;;5020848;28;20108;-67
2021/12/17 15:49:18;;;;;;;8.18;5.15;;;;;;;;;;5020638;28;20042;-67
2021/12/17 15:51:44;;;;;;;10.90;6.10;;;;;;;;;;5020045;28;20076;-67
2021/12/17 15:54:11;;;;;;;7.97;5.43;;;;;;;;;;5003024;28;20057;-67
2021/12/17 15:56:38;;;;;;;9.73;6.20;;;;;;;;;;5020287;28;20041;-67
2021/12/17 15:59:05;;;;;;;7.72;5.53;;;;;;;;;;5019634;28;20049;-67
2021/12/17 16:01:32;;;;;;;9.00;5.72;;;;;;;;;;5019202;28;20038;-67
2021/12/17 16:03:58;;;;;;;10.07;6.20;;;;;;;;;;5020262;28;20042;-67
2021/12/17 16:06:24;;;;;;;9.45;5.68;;;;;;;;;;5020182;28;20072;-67
2021/12/17 16:08:56;;;;;;;8.65;5.97;;;;;;;;;;5019925;28;20110;-67
2021/12/17 16:11:53;;;;;;;10.05;6.22;;;;;;;;;;5002043;28;20374;-67
2021/12/17 16:22:35;;;;;;;9.95;6.50;;;;;;;;;;5018684;28;20049;-67
2021/12/17 16:25:02;;;;;;;9.43;5.57;;;;;;;;;;5019350;28;20569;-67
2021/12/17 16:27:29;;;;;;;9.07;5.45;;;;;;;;;;5020290;28;20134;-67
2021/12/17 16:29:57;;;;;;;8.88;5.93;;;;;;;;;;5019633;28;20057;-67
2021/12/17 16:32:23;;;;;;;9.05;5.55;;;;;;;;;;5019854;28;20072;-67
2021/12/17 16:34:50;;;;;;;8.85;5.35;;;;;;;;;;5019897;28;20101;-67
2021/12/17 16:37:21;;;;;;;8.15;5.50;;;;;;;;;;5019466;28;20065;-67
2021/12/17 16:39:47;;;;;;;8.73;5.65;;;;;;;;;;5019754;28;20103;-67
2021/12/17 16:42:16;;;;;;;8.73;5.63;;;;;;;;;;5018913;28;20053;-67
2021/12/17 16:47:24;;;;;;;8.82;6.28;;;;;;;;;;5019108;28;20050;-67
2021/12/17 16:49:51;;;;;;;10.07;6.30;;;;;;;;;;5019292;28;20569;-67
2021/12/17 16:52:19;;;;;;;9.02;5.60;;;;;;;;;;5018566;28;20053;-67
2021/12/17 16:54:45;;;;;;;8.98;5.82;;;;;;;;;;5019290;28;20074;-67
2021/12/17 16:57:11;;;;;;;7.72;5.22;;;;;;;;;;5018804;28;20444;-67
2021/12/17 16:59:37;;;;;;;6.97;5.18;;;;;;;;;;5018971;28;20041;-67
2021/12/17 17:02:04;;;;;;;8.23;5.82;;;;;;;;;;5021401;28;20042;-67
2021/12/17 17:04:31;;;;;;;10.52;6.13;;;;;;;;;;5023361;28;20041;-67
2021/12/17 17:06:57;;;;;;;12.15;6.53;;;;;;;;;;5022636;28;20066;-67
2021/12/17 17:09:23;;;;;;;9.85;5.90;;;;;;;;;;5022626;28;20038;-67
2021/12/17 17:11:51;;;;;;;9.48;6.30;;;;;;;;;;5022389;28;20046;-67
2021/12/17 17:14:17;;;;;;;9.25;6.15;;;;;;;;;;5021812;28;20057;-67
2021/12/17 17:16:43;;;;;;;10.20;6.80;;;;;;;;;;5022899;28;20042;-67
2021/12/17 17:19:11;;;;;;;12.02;6.47;;;;;;;;;;5022796;28;20046;-67
2021/12/17 17:21:38;;;;;;;10.68;6.65;;;;;;;;;;5021831;28;20088;-67
2021/12/17 17:24:07;;;;;;;9.27;6.03;;;;;;;;;;5022427;28;20060;-67
2021/12/17 17:26:33;;;;;;;11.15;7.00;;;;;;;;;;5005085;28;20048;-67
2021/12/17 17:29:00;;;;;;;10.43;6.43;;;;;;;;;;5021256;28;20125;-67
2021/12/17 17:31:29;;;;;;;12.13;6.85;;;;;;;;;;5004075;28;20060;-67
2021/12/17 17:33:58;;;;;;;10.90;6.63;;;;;;;;;;5021531;28;20084;-67
2021/12/17 17:36:24;;;;;;;10.20;6.63;;;;;;;;;;5021896;28;20127;-67
2021/12/17 17:38:52;;;;;;;11.20;7.00;;;;;;;;;;5022150;28;20128;-67